Time;durP1;ratioP1;P1;durP2;ratioP2;P2;SDS_P1;SDS_P2;PMS_P1;PMS_P2;Temp;Humidity;BMP_temperature;BMP_pressure;BME280_temperature;BME280_humidity;BME280_pressure;Samples;Min_cycle;Max_cycle;Signal;HPM_P1;HPM_P2
2022/06/27 00:00:26;;;;;;;19.40;18.40;;;20.20;88.40;;;;;;4987882;28;20567;-68
2022/06/27 00:02:53;;;;;;;19.03;18.10;;;20.20;88.20;;;;;;4987260;28;20572;-69
2022/06/27 00:05:20;;;;;;;19.30;18.40;;;20.10;85.80;;;;;;4990204;28;20534;-71
2022/06/27 00:07:48;;;;;;;18.87;17.97;;;20.10;86.20;;;;;;4990974;28;20852;-71
2022/06/27 00:10:15;;;;;;;19.80;18.70;;;20.20;85.50;;;;;;4986344;28;20474;-71
2022/06/27 00:12:43;;;;;;;19.10;18.20;;;20.00;85.80;;;;;;4987467;28;21045;-72
2022/06/27 00:15:11;;;;;;;19.53;18.63;;;20.00;84.90;;;;;;4988926;28;21397;-71
2022/06/27 00:17:39;;;;;;;19.80;18.90;;;19.90;84.40;;;;;;4986985;28;20486;-72
2022/06/27 00:20:07;;;;;;;19.77;18.70;;;20.10;84.30;;;;;;4986590;28;20485;-72
2022/06/27 00:22:34;;;;;;;19.93;18.93;;;20.00;83.90;;;;;;4986396;28;21029;-73
2022/06/27 00:25:03;;;;;;;20.10;19.00;;;20.00;84.60;;;;;;4987552;28;21443;-71
2022/06/27 00:27:30;;;;;;;19.77;18.87;;;20.10;84.50;;;;;;4987620;28;20836;-75
2022/06/27 00:29:57;;;;;;;19.80;18.70;;;20.00;83.80;;;;;;4987533;28;20465;-74
2022/06/27 00:32:24;;;;;;;19.20;18.30;;;19.90;84.50;;;;;;4987085;28;20462;-71
2022/06/27 00:34:51;;;;;;;19.50;18.50;;;19.70;85.30;;;;;;4988399;28;20533;-72
2022/06/27 00:37:18;;;;;;;19.50;18.50;;;19.70;86.30;;;;;;4988411;28;20488;-75
2022/06/27 00:39:45;;;;;;;20.33;19.00;;;19.70;87.00;;;;;;4986711;28;20461;-71
2022/06/27 00:42:13;;;;;;;18.83;17.90;;;19.70;87.70;;;;;;4987245;28;20540;-74
2022/06/27 00:44:42;;;;;;;19.53;18.33;;;19.70;88.80;;;;;;4988695;28;20939;-72
2022/06/27 00:47:11;;;;;;;18.77;17.87;;;19.70;89.30;;;;;;4987256;28;20493;-71
2022/06/27 00:49:38;;;;;;;20.50;19.40;;;19.60;89.10;;;;;;4986336;28;20474;-74
2022/06/27 00:52:07;;;;;;;19.93;18.63;;;19.50;89.70;;;;;;4987894;28;20586;-71
2022/06/27 00:54:35;;;;;;;19.77;18.60;;;19.30;90.70;;;;;;4987056;28;20540;-76
2022/06/27 00:57:02;;;;;;;18.57;17.47;;;19.20;91.40;;;;;;4988010;28;20482;-74
2022/06/27 00:59:30;;;;;;;18.30;17.00;;;19.20;92.30;;;;;;4986929;28;20480;-72
2022/06/27 01:01:57;;;;;;;17.07;16.23;;;19.20;93.00;;;;;;4988472;28;20466;-73
2022/06/27 01:04:24;;;;;;;18.17;17.17;;;19.30;92.80;;;;;;4986449;28;20458;-71
2022/06/27 01:06:52;;;;;;;19.83;18.83;;;19.30;91.40;;;;;;4987306;28;20569;-77
2022/06/27 01:09:20;;;;;;;19.90;18.70;;;19.30;90.90;;;;;;4986475;28;20461;-71
2022/06/27 01:11:47;;;;;;;19.40;18.20;;;19.40;90.60;;;;;;4988043;28;20561;-71
2022/06/27 01:14:15;;;;;;;20.20;19.00;;;19.30;91.20;;;;;;4985813;28;20561;-75
2022/06/27 01:16:43;;;;;;;19.70;18.60;;;19.10;91.40;;;;;;4987783;28;20561;-70
2022/06/27 01:19:12;;;;;;;18.20;17.30;;;19.00;92.50;;;;;;4995366;28;20890;-73
2022/06/27 01:21:45;;;;;;;18.63;17.50;;;19.00;92.30;;;;;;4987953;28;20469;-71
2022/06/27 01:24:13;;;;;;;18.50;17.50;;;19.20;92.50;;;;;;4988261;28;20554;-72
2022/06/27 01:26:42;;;;;;;18.33;17.20;;;19.20;92.50;;;;;;4987645;28;21055;-73
2022/06/27 01:29:10;;;;;;;17.57;16.57;;;19.20;92.70;;;;;;4986503;28;20869;-74
2022/06/27 01:31:38;;;;;;;18.20;17.30;;;19.10;92.90;;;;;;4988174;28;20556;-73
2022/06/27 01:34:06;;;;;;;18.03;17.13;;;19.00;92.70;;;;;;4986757;28;20570;-71
2022/06/27 01:36:45;;;;;;;17.50;16.70;;;19.00;93.00;;;;;;4986696;28;20486;-73
2022/06/27 01:39:16;;;;;;;18.23;17.07;;;19.00;93.00;;;;;;4985908;28;20472;-72
2022/06/27 01:41:45;;;;;;;18.83;17.83;;;19.00;93.20;;;;;;4987608;28;20454;-72
2022/06/27 01:44:13;;;;;;;18.10;17.20;;;19.00;93.00;;;;;;4986528;28;21011;-71
2022/06/27 01:46:43;;;;;;;17.70;16.90;;;19.00;92.60;;;;;;4988348;28;20453;-73
2022/06/27 01:49:10;;;;;;;17.50;16.70;;;19.00;93.00;;;;;;4984674;28;20528;-73
2022/06/27 01:51:37;;;;;;;18.43;17.40;;;19.00;92.50;;;;;;4988178;28;21036;-71
2022/06/27 01:54:04;;;;;;;17.77;16.87;;;19.10;92.50;;;;;;4986864;28;20496;-70
2022/06/27 01:56:33;;;;;;;18.43;17.27;;;19.10;92.70;;;;;;4991133;28;20481;-70
2022/06/27 01:59:01;;;;;;;18.10;17.10;;;19.10;93.10;;;;;;4990796;28;20592;-69
2022/06/27 02:01:29;;;;;;;17.67;16.77;;;19.10;93.20;;;;;;4988788;28;20548;-71
2022/06/27 02:03:59;;;;;;;17.80;16.90;;;19.10;93.00;;;;;;4991597;28;20497;-70
2022/06/27 02:06:26;;;;;;;18.23;17.33;;;19.10;92.90;;;;;;4991548;28;20466;-69
2022/06/27 02:08:55;;;;;;;18.10;17.20;;;19.10;92.80;;;;;;4990758;28;21288;-69
2022/06/27 02:11:22;;;;;;;18.33;17.43;;;19.10;92.70;;;;;;4987480;28;21130;-70
2022/06/27 02:13:51;;;;;;;18.43;17.30;;;19.10;92.80;;;;;;4991951;28;20645;-69
2022/06/27 02:16:19;;;;;;;17.73;16.83;;;19.20;92.80;;;;;;4990766;28;21042;-69
2022/06/27 02:18:47;;;;;;;18.73;17.63;;;19.10;92.60;;;;;;4992340;28;20492;-69
2022/06/27 02:21:17;;;;;;;18.57;17.67;;;19.10;92.10;;;;;;4989564;28;20562;-70
2022/06/27 02:23:44;;;;;;;18.67;17.67;;;19.10;91.40;;;;;;4992134;28;20542;-70
2022/06/27 02:26:12;;;;;;;19.07;18.13;;;19.10;91.20;;;;;;4991315;28;20541;-69
2022/06/27 02:28:40;;;;;;;19.00;18.10;;;19.10;91.60;;;;;;4989132;28;20522;-70
2022/06/27 02:31:10;;;;;;;20.10;19.00;;;19.10;91.90;;;;;;4988883;28;20495;-69
2022/06/27 02:33:39;;;;;;;19.40;18.40;;;19.10;92.10;;;;;;4991215;28;20508;-69
2022/06/27 02:36:10;;;;;;;18.77;17.57;;;19.10;92.40;;;;;;4991229;28;20937;-70
2022/06/27 02:38:43;;;;;;;25.97;24.43;;;19.10;92.50;;;;;;4988612;28;20565;-71
2022/06/27 02:41:14;;;;;;;19.00;17.90;;;19.10;92.10;;;;;;4988277;28;20470;-70
2022/06/27 02:43:45;;;;;;;17.97;17.17;;;19.10;92.30;;;;;;4991164;28;20462;-69
2022/06/27 02:46:13;;;;;;;17.83;16.90;;;19.10;92.20;;;;;;4991403;28;20545;-70
2022/06/27 02:48:41;;;;;;;18.57;17.27;;;19.10;92.00;;;;;;4991315;28;20939;-69
2022/06/27 02:51:14;;;;;;;18.33;17.30;;;19.00;92.50;;;;;;4987792;28;20529;-73
2022/06/27 02:53:47;;;;;;;18.33;17.20;;;18.90;92.90;;;;;;4991098;28;20493;-71
2022/06/27 02:56:21;;;;;;;18.03;17.23;;;18.90;93.10;;;;;;4991901;28;20569;-72
2022/06/27 02:58:55;;;;;;;18.43;17.40;;;18.90;93.30;;;;;;4990919;28;20500;-72
2022/06/27 03:01:24;;;;;;;18.80;17.50;;;18.90;93.40;;;;;;4989642;28;20481;-71
2022/06/27 03:03:53;;;;;;;18.57;17.40;;;18.80;93.20;;;;;;4990986;28;20553;-72
2022/06/27 03:06:21;;;;;;;18.40;17.30;;;18.90;93.00;;;;;;4991277;28;20486;-72
2022/06/27 03:08:49;;;;;;;18.70;17.80;;;18.80;93.20;;;;;;4987635;28;20577;-71
2022/06/27 03:11:18;;;;;;;20.40;19.37;;;18.80;93.50;;;;;;4990327;28;21155;-73
2022/06/27 03:13:46;;;;;;;19.40;18.40;;;18.80;93.50;;;;;;4989922;28;20497;-71
2022/06/27 03:16:14;;;;;;;21.20;20.10;;;18.80;93.50;;;;;;4989083;28;20540;-74
2022/06/27 03:18:43;;;;;;;19.70;18.60;;;18.80;93.50;;;;;;4989397;28;20509;-71
2022/06/27 03:21:11;;;;;;;19.27;18.27;;;18.70;93.50;;;;;;4987864;28;20565;-72
2022/06/27 03:23:38;;;;;;;18.67;17.67;;;18.80;93.30;;;;;;4988971;28;20982;-71
2022/06/27 03:26:05;;;;;;;18.40;17.50;;;18.70;93.40;;;;;;4990609;28;20461;-71
2022/06/27 03:28:32;;;;;;;20.40;19.30;;;18.80;93.00;;;;;;4988549;28;20912;-72
2022/06/27 03:30:59;;;;;;;23.63;22.03;;;18.80;93.00;;;;;;4988458;28;20543;-71
2022/06/27 03:33:26;;;;;;;19.53;18.50;;;18.80;93.40;;;;;;4988371;28;20478;-71
2022/06/27 03:35:54;;;;;;;19.43;18.23;;;18.80;93.60;;;;;;4989773;28;20550;-69
2022/06/27 03:38:21;;;;;;;19.37;18.07;;;18.90;93.10;;;;;;4990397;28;20589;-69
2022/06/27 03:40:48;;;;;;;23.30;21.90;;;18.90;93.10;;;;;;4988502;28;20493;-69
2022/06/27 03:43:15;;;;;;;20.70;19.60;;;18.90;93.50;;;;;;4989026;28;20549;-71
2022/06/27 03:45:42;;;;;;;21.20;20.10;;;19.00;93.00;;;;;;4988443;28;20553;-74
2022/06/27 03:49:59;;;;;;;19.63;18.63;;;19.00;92.70;;;;;;4990031;28;20557;-69
2022/06/27 03:50:57;;;;;;;19.77;18.77;;;19.00;92.80;;;;;;4986556;28;20457;-69
2022/06/27 03:53:24;;;;;;;24.47;23.13;;;19.00;92.50;;;;;;4988144;28;21358;-69
2022/06/27 03:55:51;;;;;;;19.60;18.50;;;19.00;92.50;;;;;;4990665;28;20465;-70
2022/06/27 03:58:18;;;;;;;18.40;17.40;;;19.00;92.30;;;;;;4989180;28;20486;-69
2022/06/27 04:00:45;;;;;;;19.67;18.47;;;19.00;92.40;;;;;;4987988;28;20581;-69
2022/06/27 04:03:12;;;;;;;21.30;20.20;;;19.10;92.10;;;;;;4987964;28;20470;-69
2022/06/27 04:05:39;;;;;;;21.30;19.80;;;19.00;92.00;;;;;;4988623;28;20466;-73
2022/06/27 04:08:08;;;;;;;19.70;18.70;;;19.00;92.30;;;;;;4989994;28;20996;-75
2022/06/27 04:10:35;;;;;;;19.00;18.00;;;19.00;92.30;;;;;;4987361;28;20465;-73
2022/06/27 04:13:02;;;;;;;24.17;22.70;;;19.00;92.20;;;;;;4988261;28;20542;-76
2022/06/27 04:15:29;;;;;;;19.80;18.70;;;19.00;92.80;;;;;;4988205;28;20490;-73
2022/06/27 04:17:56;;;;;;;19.13;18.03;;;19.00;93.00;;;;;;4989179;28;20561;-73
2022/06/27 04:20:24;;;;;;;18.93;17.90;;;19.00;93.00;;;;;;4987570;28;20541;-72
2022/06/27 04:22:51;;;;;;;19.00;18.00;;;19.00;93.30;;;;;;4989576;28;20490;-73
2022/06/27 04:25:20;;;;;;;21.83;20.53;;;19.00;93.20;;;;;;4987081;28;21039;-72
2022/06/27 04:27:47;;;;;;;23.23;22.03;;;19.10;92.70;;;;;;4989339;28;20556;-71
2022/06/27 04:30:16;;;;;;;19.80;18.80;;;19.20;92.40;;;;;;4985405;28;20477;-72
2022/06/27 04:32:44;;;;;;;23.03;21.90;;;19.20;92.40;;;;;;4987414;28;20469;-72
2022/06/27 04:35:11;;;;;;;20.80;19.70;;;19.30;91.60;;;;;;4989377;28;20468;-73
2022/06/27 04:37:40;;;;;;;19.67;18.60;;;19.30;91.50;;;;;;4990662;28;20575;-74
2022/06/27 04:40:08;;;;;;;19.50;18.40;;;19.40;91.70;;;;;;4989215;28;20866;-74
2022/06/27 04:42:37;;;;;;;22.40;21.30;;;19.50;91.40;;;;;;4990417;28;20813;-74
2022/06/27 04:45:06;;;;;;;20.63;19.50;;;19.70;90.90;;;;;;4989409;28;20917;-75
2022/06/27 04:47:33;;;;;;;22.60;21.20;;;19.80;90.30;;;;;;4988774;28;20471;-75
2022/06/27 04:50:00;;;;;;;23.93;22.93;;;20.00;89.90;;;;;;4988500;28;20482;-77
2022/06/27 04:52:27;;;;;;;21.57;20.40;;;20.10;89.40;;;;;;4989671;28;20490;-74
2022/06/27 04:54:54;;;;;;;23.93;22.53;;;20.30;88.90;;;;;;4984612;28;20468;-73
2022/06/27 04:57:22;;;;;;;20.90;19.90;;;20.50;88.40;;;;;;4985704;28;20890;-71
2022/06/27 04:59:51;;;;;;;22.70;21.23;;;20.60;87.80;;;;;;4984841;28;20518;-71
2022/06/27 05:02:18;;;;;;;21.23;20.13;;;20.70;87.20;;;;;;4983082;28;20547;-71
2022/06/27 05:04:45;;;;;;;20.33;19.23;;;20.90;86.80;;;;;;4985328;28;20944;-70
2022/06/27 05:07:12;;;;;;;21.23;20.13;;;21.00;86.60;;;;;;4983039;28;20477;-70
2022/06/27 05:09:39;;;;;;;22.90;21.60;;;21.20;86.40;;;;;;4979015;28;20633;-73
2022/06/27 05:12:06;;;;;;;22.00;20.80;;;21.30;86.20;;;;;;4979826;28;20520;-75
2022/06/27 05:14:33;;;;;;;21.30;20.10;;;21.40;86.30;;;;;;4980477;28;20899;-72
2022/06/27 05:17:02;;;;;;;22.20;21.00;;;21.60;84.80;;;;;;4978846;28;20578;-70
2022/06/27 05:19:29;;;;;;;24.37;23.00;;;21.80;84.40;;;;;;4983184;28;20894;-74
2022/06/27 05:21:56;;;;;;;21.60;20.50;;;21.80;84.40;;;;;;4985139;28;20458;-71
2022/06/27 05:24:23;;;;;;;21.37;20.13;;;22.00;83.60;;;;;;4987133;28;20461;-73
2022/06/27 05:26:50;;;;;;;24.10;22.70;;;22.00;83.60;;;;;;4987917;28;20577;-73
2022/06/27 05:29:17;;;;;;;26.43;25.10;;;21.70;83.50;;;;;;4986658;28;20500;-71
2022/06/27 05:31:44;;;;;;;23.40;21.90;;;21.40;84.20;;;;;;4987282;28;20562;-71
2022/06/27 05:34:12;;;;;;;23.53;22.07;;;21.00;85.40;;;;;;4986184;28;20456;-72
2022/06/27 05:36:41;;;;;;;22.13;21.00;;;20.70;86.80;;;;;;4981933;28;20587;-72
2022/06/27 05:39:09;;;;;;;23.47;21.97;;;20.90;86.70;;;;;;4982555;28;20934;-71
2022/06/27 05:41:36;;;;;;;23.23;21.93;;;21.00;86.10;;;;;;4981724;28;20552;-71
2022/06/27 05:44:06;;;;;;;24.93;23.63;;;20.90;86.60;;;;;;4979691;28;20456;-71
2022/06/27 05:46:33;;;;;;;23.30;22.10;;;20.90;86.80;;;;;;4983011;28;20470;-70
2022/06/27 05:49:03;;;;;;;24.60;23.20;;;21.10;86.40;;;;;;4985645;28;20485;-77
2022/06/27 05:51:32;;;;;;;26.70;25.00;;;21.30;85.30;;;;;;4989041;28;20484;-77
2022/06/27 05:54:01;;;;;;;22.47;21.37;;;21.40;85.10;;;;;;4987816;28;20945;-77
2022/06/27 05:56:28;;;;;;;24.03;22.73;;;21.50;85.00;;;;;;4988189;28;20462;-76
2022/06/27 05:58:58;;;;;;;23.90;22.63;;;21.60;84.70;;;;;;4983228;28;20882;-75
2022/06/27 06:01:26;;;;;;;25.10;23.80;;;21.60;84.70;;;;;;4989638;28;20468;-75
2022/06/27 06:03:56;;;;;;;26.80;25.20;;;21.70;84.40;;;;;;4987745;28;20492;-71
2022/06/27 06:06:25;;;;;;;24.00;22.70;;;21.80;84.40;;;;;;4988462;28;20478;-71
2022/06/27 06:08:55;;;;;;;24.40;23.10;;;21.90;84.50;;;;;;4982035;28;20483;-74
2022/06/27 06:11:23;;;;;;;28.30;26.50;;;22.10;83.60;;;;;;4988410;28;20458;-73
2022/06/27 06:13:50;;;;;;;24.37;22.87;;;22.40;82.30;;;;;;4983206;28;20836;-73
2022/06/27 06:16:20;;;;;;;24.80;23.50;;;22.50;81.60;;;;;;4988863;28;20506;-72
2022/06/27 06:18:50;;;;;;;26.60;25.20;;;22.60;81.50;;;;;;4988318;28;20861;-72
2022/06/27 06:21:21;;;;;;;26.47;24.97;;;22.40;81.80;;;;;;4983121;28;21018;-71
2022/06/27 06:23:49;;;;;;;25.00;23.60;;;22.50;81.70;;;;;;4987220;28;20464;-71
2022/06/27 06:26:17;;;;;;;25.17;23.77;;;22.40;82.30;;;;;;4987818;28;20563;-72
2022/06/27 06:28:48;;;;;;;26.80;25.40;;;22.40;81.40;;;;;;4985135;28;20569;-71
2022/06/27 06:31:21;;;;;;;29.57;28.07;;;22.30;81.10;;;;;;4987284;28;20460;-71
2022/06/27 06:33:49;;;;;;;28.40;26.90;;;22.10;80.10;;;;;;4986465;28;20474;-70
2022/06/27 06:36:21;;;;;;;26.70;25.00;;;21.80;81.10;;;;;;4987772;28;20467;-71
2022/06/27 06:38:50;;;;;;;27.57;26.07;;;21.80;82.10;;;;;;4986534;28;20491;-72
2022/06/27 06:41:18;;;;;;;26.63;24.97;;;21.90;81.00;;;;;;4985226;28;20460;-71
2022/06/27 06:43:46;;;;;;;28.55;26.85;;;22.20;80.50;;;;;;4988169;28;21316;-70
2022/06/27 06:46:13;;;;;;;26.70;25.30;;;22.40;79.60;;;;;;4988241;28;20209;-73
2022/06/27 06:48:41;;;;;;;31.13;28.90;;;22.50;79.30;;;;;;4990464;28;21024;-73
2022/06/27 06:51:08;;;;;;;27.10;25.60;;;22.60;79.30;;;;;;4983215;28;20459;-74
2022/06/27 06:53:36;;;;;;;28.60;27.10;;;22.60;79.00;;;;;;4989759;28;20508;-73
2022/06/27 06:56:05;;;;;;;30.43;28.87;;;22.90;78.20;;;;;;4990769;28;20452;-74
2022/06/27 06:58:34;;;;;;;28.10;26.50;;;23.20;77.00;;;;;;4990608;28;21053;-74
2022/06/27 07:01:01;;;;;;;28.20;26.60;;;23.20;76.90;;;;;;4991733;28;20458;-73
2022/06/27 07:03:29;;;;;;;32.87;30.87;;;23.20;76.90;;;;;;4987139;28;20465;-72
2022/06/27 07:05:58;;;;;;;27.57;26.07;;;23.20;76.70;;;;;;4987057;28;20553;-72
2022/06/27 07:08:28;;;;;;;29.93;28.13;;;23.40;77.00;;;;;;4978109;28;21576;-73
2022/06/27 07:10:57;;;;;;;31.10;29.40;;;23.80;75.40;;;;;;4984205;28;20556;-72
2022/06/27 07:13:24;;;;;;;28.57;26.97;;;23.70;75.20;;;;;;4988604;28;20556;-72
2022/06/27 07:15:53;;;;;;;29.27;27.37;;;23.30;76.00;;;;;;4984480;28;20469;-72
2022/06/27 07:18:20;;;;;;;27.13;25.33;;;23.00;76.70;;;;;;4985399;28;20566;-70
2022/06/27 07:20:47;;;;;;;31.40;29.70;;;23.10;77.00;;;;;;4983274;28;20566;-72
2022/06/27 07:23:15;;;;;;;29.13;27.60;;;23.00;77.50;;;;;;4988579;28;20853;-71
2022/06/27 07:25:43;;;;;;;27.20;25.77;;;23.10;77.00;;;;;;4983611;28;21073;-70
2022/06/27 07:28:10;;;;;;;29.83;28.10;;;23.20;76.60;;;;;;4983874;28;20480;-72
2022/06/27 07:30:37;;;;;;;31.63;30.10;;;23.30;76.40;;;;;;4986357;28;20985;-74
2022/06/27 07:33:07;;;;;;;28.23;26.77;;;23.30;76.60;;;;;;4983025;28;20928;-74
2022/06/27 07:35:34;;;;;;;26.40;24.97;;;23.30;75.70;;;;;;4984354;28;20557;-72
2022/06/27 07:38:02;;;;;;;26.10;24.70;;;23.00;76.50;;;;;;4983116;28;20578;-70
2022/06/27 07:40:29;;;;;;;26.30;24.90;;;22.90;77.20;;;;;;4988327;28;20457;-74
2022/06/27 07:42:56;;;;;;;30.10;28.60;;;22.90;77.60;;;;;;4989125;28;21456;-70
2022/06/27 07:45:26;;;;;;;27.00;25.60;;;22.90;77.40;;;;;;4988197;28;20462;-71
2022/06/27 07:47:56;;;;;;;29.00;27.40;;;23.10;76.00;;;;;;4985295;28;21023;-71
2022/06/27 07:50:40;;;;;;;30.87;29.17;;;23.20;76.20;;;;;;4987549;28;20454;-72
2022/06/27 07:53:12;;;;;;;29.40;27.70;;;23.50;75.70;;;;;;4985164;28;20454;-71
2022/06/27 07:55:40;;;;;;;26.63;25.20;;;23.70;74.90;;;;;;4984130;28;20835;-70
2022/06/27 07:58:08;;;;;;;26.20;24.70;;;23.70;75.10;;;;;;4986225;28;20470;-70
2022/06/27 08:00:35;;;;;;;28.10;26.60;;;24.00;74.50;;;;;;4986237;28;20554;-71
2022/06/27 08:03:36;;;;;;;32.60;31.20;;;24.10;73.50;;;;;;4986621;28;20457;-70
2022/06/27 08:05:53;;;;;;;29.43;27.83;;;24.40;71.90;;;;;;4987008;28;20454;-75
2022/06/27 08:08:23;;;;;;;27.77;26.17;;;24.00;73.10;;;;;;4985751;28;20514;-71
2022/06/27 08:10:50;;;;;;;28.27;26.60;;;24.20;72.80;;;;;;4984124;28;20458;-75
2022/06/27 08:13:17;;;;;;;31.00;29.30;;;24.50;72.60;;;;;;4986100;28;20553;-73
2022/06/27 08:15:46;;;;;;;29.30;27.70;;;24.70;70.90;;;;;;4986578;28;20960;-71
2022/06/27 08:18:13;;;;;;;26.90;25.40;;;24.50;71.60;;;;;;4983449;28;20473;-72
2022/06/27 08:20:44;;;;;;;29.90;28.20;;;24.00;73.30;;;;;;4985612;28;20463;-74
2022/06/27 08:23:13;;;;;;;27.83;26.23;;;23.80;74.20;;;;;;4984155;28;20881;-73
2022/06/27 08:25:41;;;;;;;29.67;27.80;;;24.00;73.20;;;;;;4986444;28;21046;-74
2022/06/27 08:28:09;;;;;;;27.93;26.30;;;24.40;72.40;;;;;;4983245;28;20482;-72
2022/06/27 08:30:37;;;;;;;29.70;27.67;;;24.50;70.80;;;;;;4986717;28;21492;-76
2022/06/27 08:33:05;;;;;;;28.60;27.00;;;24.60;70.60;;;;;;4983555;28;20462;-73
2022/06/27 08:35:32;;;;;;;29.67;27.87;;;24.90;70.20;;;;;;4984298;28;20563;-73
2022/06/27 08:38:00;;;;;;;29.50;27.70;;;25.30;69.60;;;;;;4984433;28;20860;-71
2022/06/27 08:40:29;;;;;;;28.10;26.50;;;25.90;68.20;;;;;;4983481;28;20457;-70
2022/06/27 08:42:57;;;;;;;31.50;29.60;;;26.40;67.00;;;;;;4984180;28;20999;-75
2022/06/27 08:45:25;;;;;;;28.40;26.80;;;26.60;66.50;;;;;;4982427;28;20465;-72
2022/06/27 08:47:58;;;;;;;31.80;29.90;;;26.80;65.40;;;;;;4980816;28;21481;-75
2022/06/27 08:50:25;;;;;;;29.20;27.40;;;27.00;65.00;;;;;;4985322;28;20469;-73
2022/06/27 08:52:58;;;;;;;28.80;27.10;;;26.80;63.50;;;;;;4986017;28;20492;-84
2022/06/27 08:55:25;;;;;;;31.80;29.80;;;26.00;66.00;;;;;;4982908;28;20468;-70
2022/06/27 08:57:54;;;;;;;28.80;27.10;;;25.60;67.10;;;;;;4984528;28;20496;-73
2022/06/27 09:00:22;;;;;;;33.30;31.60;;;25.20;67.70;;;;;;4985641;28;20954;-73
2022/06/27 09:02:49;;;;;;;32.50;30.60;;;24.30;69.80;;;;;;4983011;28;20470;-76
2022/06/27 09:05:24;;;;;;;32.03;30.03;;;23.90;71.60;;;;;;4984243;28;20498;-71
2022/06/27 09:07:54;;;;;;;29.33;27.63;;;24.00;71.50;;;;;;4983974;28;20475;-71
2022/06/27 09:10:30;;;;;;;33.07;31.27;;;23.80;71.90;;;;;;4982832;28;20549;-71
2022/06/27 09:13:01;;;;;;;31.30;29.43;;;23.80;72.40;;;;;;4984571;28;20485;-69
2022/06/27 09:15:45;;;;;;;30.57;28.77;;;23.70;73.30;;;;;;4987350;28;20450;-70
2022/06/27 09:18:17;;;;;;;29.43;27.83;;;23.70;73.50;;;;;;4985264;28;20478;-71
2022/06/27 09:20:47;;;;;;;31.50;29.70;;;23.70;73.20;;;;;;4983319;28;20524;-74
2022/06/27 09:23:40;;;;;;;33.40;31.50;;;23.80;72.90;;;;;;4982622;28;20469;-70
2022/06/27 09:26:12;;;;;;;28.40;26.80;;;23.60;73.40;;;;;;4974395;28;20454;-70
2022/06/27 09:28:47;;;;;;;28.90;27.20;;;23.70;72.90;;;;;;4982527;28;20474;-71
2022/06/27 09:31:30;;;;;;;30.67;28.97;;;23.80;72.90;;;;;;4984796;28;20928;-71
2022/06/27 09:34:19;;;;;;;30.50;28.80;;;23.70;73.80;;;;;;4982329;28;20505;-74
2022/06/27 09:36:49;;;;;;;30.30;28.40;;;24.00;73.80;;;;;;4981622;28;20486;-71
2022/06/27 09:39:28;;;;;;;30.13;28.43;;;24.10;73.40;;;;;;4984171;28;20845;-71
2022/06/27 09:41:58;;;;;;;28.87;27.07;;;23.90;73.80;;;;;;4983647;28;20457;-72
2022/06/27 09:44:29;;;;;;;30.07;28.50;;;24.00;73.90;;;;;;4984048;28;20960;-72
2022/06/27 09:47:04;;;;;;;27.67;25.77;;;23.60;74.10;;;;;;4985507;28;20577;-73
2022/06/27 09:49:33;;;;;;;29.20;27.50;;;23.70;74.40;;;;;;4978116;28;20536;-73
2022/06/27 09:52:04;;;;;;;26.83;25.33;;;23.50;74.70;;;;;;4986525;28;20462;-74
2022/06/27 09:54:33;;;;;;;30.63;29.07;;;23.80;74.30;;;;;;4984901;28;20821;-74
2022/06/27 09:57:01;;;;;;;27.43;25.90;;;23.90;74.00;;;;;;4984592;28;20482;-73
2022/06/27 09:59:30;;;;;;;26.53;25.03;;;23.50;75.20;;;;;;4981444;28;20845;-72
2022/06/27 10:01:58;;;;;;;26.90;25.40;;;23.20;76.40;;;;;;4985260;28;20540;-76
2022/06/27 10:04:26;;;;;;;28.13;26.53;;;23.30;76.30;;;;;;4982479;28;20607;-74
2022/06/27 10:06:55;;;;;;;27.67;25.97;;;23.40;75.40;;;;;;4986123;28;20482;-77
2022/06/27 10:09:25;;;;;;;28.10;26.50;;;23.90;75.00;;;;;;4983919;28;20450;-73
2022/06/27 10:12:26;;;;;;;28.33;26.50;;;24.40;73.60;;;;;;4985868;28;20545;-72
2022/06/27 10:15:23;;;;;;;27.53;25.93;;;24.40;73.00;;;;;;4982978;28;20461;-74
2022/06/27 10:17:56;;;;;;;26.87;25.47;;;24.40;73.00;;;;;;4983241;28;21015;-72
2022/06/27 10:20:31;;;;;;;30.37;28.60;;;24.00;74.60;;;;;;4984556;28;22396;-73
2022/06/27 10:23:28;;;;;;;29.60;27.90;;;23.80;75.30;;;;;;4988209;28;20468;-73
2022/06/27 10:25:56;;;;;;;27.83;26.33;;;23.80;74.70;;;;;;4987431;28;20479;-75
2022/06/27 10:28:23;;;;;;;31.47;29.87;;;23.50;75.40;;;;;;4987617;28;20481;-76
2022/06/27 10:30:53;;;;;;;30.37;28.67;;;23.10;76.80;;;;;;4988152;28;20501;-70
2022/06/27 10:33:37;;;;;;;31.57;29.77;;;23.00;77.30;;;;;;4991924;28;20636;-72
2022/06/27 10:36:13;;;;;;;31.03;29.33;;;22.90;77.90;;;;;;4992316;28;20543;-72
2022/06/27 10:38:53;;;;;;;29.77;28.00;;;22.90;78.00;;;;;;4986484;28;22332;-72
2022/06/27 10:41:41;;;;;;;29.23;27.73;;;23.00;76.70;;;;;;4980962;28;20477;-71
2022/06/27 10:44:31;;;;;;;29.17;27.60;;;22.90;77.20;;;;;;4981844;28;20458;-71
2022/06/27 10:47:00;;;;;;;28.57;26.97;;;22.90;77.40;;;;;;4984140;28;20596;-71
2022/06/27 10:49:29;;;;;;;31.20;29.37;;;23.00;77.20;;;;;;4983340;28;20460;-72
2022/06/27 10:52:33;;;;;;;27.60;26.10;;;22.70;77.80;;;;;;4984124;28;20925;-72
2022/06/27 10:55:01;;;;;;;30.30;28.60;;;22.50;78.80;;;;;;4982396;28;20471;-72
2022/06/27 10:57:44;;;;;;;27.77;26.27;;;22.60;78.70;;;;;;4984941;28;20724;-72
2022/06/27 11:00:32;;;;;;;29.37;27.77;;;22.50;78.20;;;;;;4984584;28;20479;-73
2022/06/27 11:03:01;;;;;;;28.53;26.93;;;22.60;77.40;;;;;;4983737;28;20487;-74
2022/06/27 11:05:29;;;;;;;31.80;30.10;;;22.70;77.30;;;;;;4981199;28;20527;-71
2022/06/27 11:07:56;;;;;;;29.60;28.00;;;22.70;77.10;;;;;;4985083;28;20910;-71
2022/06/27 11:10:25;;;;;;;28.80;27.20;;;22.90;76.70;;;;;;4985911;28;20571;-72
2022/06/27 11:12:51;;;;;;;28.83;27.23;;;23.00;75.60;;;;;;4984010;28;21884;-70
2022/06/27 11:15:18;;;;;;;29.43;27.83;;;22.90;75.60;;;;;;4984314;28;20533;-70
2022/06/27 11:17:46;;;;;;;30.10;28.30;;;23.20;75.10;;;;;;4984539;28;20489;-69
2022/06/27 11:20:23;;;;;;;29.67;27.97;;;23.60;74.10;;;;;;4979684;28;21014;-69
2022/06/27 11:22:55;;;;;;;29.20;27.60;;;23.70;73.40;;;;;;4986535;28;20470;-70
2022/06/27 11:25:24;;;;;;;30.87;29.17;;;23.70;73.40;;;;;;4988709;28;20549;-71
2022/06/27 11:27:56;;;;;;;31.00;29.17;;;23.90;72.70;;;;;;4987473;28;20647;-70
2022/06/27 11:33:20;;;;;;;32.40;30.80;;;24.00;71.90;;;;;;4983831;28;20542;-69
2022/06/27 11:35:49;;;;;;;30.27;28.47;;;24.00;71.60;;;;;;4983589;28;20545;-69
2022/06/27 11:38:28;;;;;;;31.43;29.50;;;23.70;71.60;;;;;;4985255;28;20880;-69
2022/06/27 11:41:06;;;;;;;28.73;27.13;;;23.30;72.90;;;;;;4987867;28;20469;-71
2022/06/27 11:43:57;;;;;;;29.47;27.77;;;23.20;73.20;;;;;;4984138;28;20542;-70
2022/06/27 11:46:29;;;;;;;29.93;28.23;;;23.30;73.00;;;;;;4985469;28;20458;-70
2022/06/27 11:48:59;;;;;;;28.20;26.60;;;23.10;72.80;;;;;;4983353;28;20477;-70
2022/06/27 11:51:30;;;;;;;29.67;27.97;;;23.10;73.20;;;;;;4989380;28;20552;-69
2022/06/27 11:54:01;;;;;;;28.93;27.30;;;23.20;73.20;;;;;;4987965;28;20463;-71
2022/06/27 11:56:31;;;;;;;30.13;28.43;;;23.30;73.90;;;;;;4979100;28;20473;-70
2022/06/27 11:58:59;;;;;;;27.87;26.27;;;23.40;74.10;;;;;;4986446;28;20478;-71
2022/06/27 12:01:27;;;;;;;31.00;29.20;;;23.10;73.90;;;;;;4984075;28;20469;-70
2022/06/27 12:04:16;;;;;;;29.70;28.00;;;22.90;74.40;;;;;;4987279;28;21404;-70
2022/06/27 12:06:48;;;;;;;32.00;29.97;;;22.70;74.90;;;;;;4981403;28;20458;-72
2022/06/27 12:09:15;;;;;;;31.07;29.23;;;22.30;76.10;;;;;;4984376;28;20883;-73
2022/06/27 12:11:54;;;;;;;28.60;27.00;;;22.30;76.40;;;;;;4983049;28;20551;-69
2022/06/27 12:14:22;;;;;;;30.80;28.90;;;22.20;76.20;;;;;;4981399;28;20455;-69
2022/06/27 12:16:56;;;;;;;29.70;28.03;;;22.20;76.60;;;;;;4986572;28;20487;-72
2022/06/27 12:19:24;;;;;;;30.60;28.70;;;22.30;76.00;;;;;;4988472;28;20483;-73
2022/06/27 12:21:56;;;;;;;29.00;27.30;;;22.10;75.50;;;;;;4989255;28;20470;-71
2022/06/27 12:24:24;;;;;;;29.07;27.47;;;21.70;76.80;;;;;;4984866;28;21507;-73
2022/06/27 12:26:51;;;;;;;29.07;27.47;;;21.70;76.80;;;;;;4988700;28;21210;-72
2022/06/27 12:29:18;;;;;;;30.87;29.07;;;21.60;77.50;;;;;;4987856;28;20465;-72
2022/06/27 12:31:45;;;;;;;29.67;28.07;;;21.60;77.50;;;;;;4983166;28;20462;-69
2022/06/27 12:34:12;;;;;;;29.33;27.73;;;21.80;77.20;;;;;;4985249;28;20455;-70
2022/06/27 12:36:40;;;;;;;32.37;30.57;;;21.80;76.70;;;;;;4985343;28;20466;-69
2022/06/27 12:39:09;;;;;;;29.00;27.40;;;21.60;77.20;;;;;;4983894;28;20481;-71
2022/06/27 12:41:37;;;;;;;32.17;30.37;;;21.70;77.20;;;;;;4984236;28;20550;-71
2022/06/27 12:44:05;;;;;;;33.07;31.27;;;21.80;76.70;;;;;;4987759;28;20452;-70